createdAt,value
2022-10-22T00:04:52.374Z,82.03
2022-10-22T00:13:15.959Z,83.13
2022-10-22T00:21:39.150Z,84.92
2022-10-22T00:30:03.365Z,85.40
2022-10-22T00:38:26.585Z,85.40
2022-10-22T00:46:49.475Z,85.38
2022-10-22T00:55:14.350Z,86.41
2022-10-22T01:03:37.189Z,86.64
2022-10-22T01:12:19.160Z,85.92
2022-10-22T01:21:00.859Z,87.39
2022-10-22T01:29:34.184Z,86.62
2022-10-22T01:38:01.575Z,87.08
2022-10-22T01:46:27.302Z,88.47
2022-10-22T01:55:09.886Z,87.77
2022-10-22T02:03:45.249Z,88.81
2022-10-22T02:12:09.660Z,88.63
2022-10-22T02:20:35.803Z,89.20
2022-10-22T02:29:02.804Z,89.60
2022-10-22T02:37:27.527Z,89.72
2022-10-22T02:45:50.418Z,89.25
2022-10-22T02:54:13.226Z,89.86
2022-10-22T03:02:36.176Z,89.64
2022-10-22T03:10:59.145Z,89.19
2022-10-22T03:19:22.044Z,89.51
2022-10-22T03:27:46.592Z,90.10
2022-10-22T03:36:09.747Z,89.38
2022-10-22T03:44:33.732Z,90.31
2022-10-22T03:52:58.262Z,90.31
2022-10-22T04:01:21.070Z,90.21
2022-10-22T04:09:44.075Z,90.02
2022-10-22T04:18:06.873Z,89.94
2022-10-22T04:26:29.742Z,89.45
2022-10-22T04:34:52.768Z,88.98
2022-10-22T04:43:15.660Z,89.13
2022-10-22T04:51:38.477Z,88.68
2022-10-22T05:00:01.327Z,88.59
2022-10-22T05:08:24.213Z,88.80
2022-10-22T05:16:48.882Z,88.81
2022-10-22T05:25:12.317Z,89.05
2022-10-22T05:33:35.276Z,89.47
2022-10-22T05:41:58.562Z,89.87
2022-10-22T05:50:21.767Z,89.64
2022-10-22T05:58:45.559Z,89.48
2022-10-22T06:07:15.463Z,89.59
2022-10-22T06:15:38.342Z,89.36
2022-10-22T06:24:02.536Z,89.43
2022-10-22T06:32:25.504Z,89.87
2022-10-22T06:40:48.754Z,89.64
2022-10-22T06:49:15.616Z,89.48
2022-10-22T06:57:38.816Z,89.52
2022-10-22T07:06:03.596Z,89.32
2022-10-22T07:14:26.778Z,89.26
2022-10-22T07:22:53.157Z,89.30
2022-10-22T07:31:21.714Z,89.41
2022-10-22T07:39:47.413Z,89.16
2022-10-22T07:48:11.638Z,88.83
2022-10-22T07:56:34.540Z,88.47
2022-10-22T08:04:57.368Z,87.95
2022-10-22T08:13:20.808Z,87.51
2022-10-22T08:21:43.662Z,86.74
2022-10-22T08:30:07.305Z,85.75
2022-10-22T08:38:31.606Z,85.30
2022-10-22T08:47:09.761Z,84.78
2022-10-22T08:55:37.237Z,83.96
2022-10-22T09:04:27.793Z,82.50
2022-10-22T09:12:51.422Z,83.56
2022-10-22T09:21:29.318Z,83.73
2022-10-22T09:29:52.320Z,82.57
2022-10-22T09:38:18.965Z,82.51
2022-10-22T09:46:45.482Z,82.44
2022-10-22T09:55:18.494Z,83.04
2022-10-22T10:03:41.290Z,83.01
2022-10-22T10:12:09.908Z,82.27
2022-10-22T10:20:52.842Z,81.55
2022-10-22T10:29:21.890Z,81.17
2022-10-22T10:37:59.745Z,81.40
2022-10-22T10:46:48.178Z,81.85
2022-10-22T10:55:32.485Z,82.28
2022-10-22T11:04:11.993Z,82.51
2022-10-22T11:12:42.520Z,82.96
2022-10-22T11:21:18.913Z,83.49
2022-10-22T11:29:46.197Z,83.63
2022-10-22T11:38:15.152Z,83.54
2022-10-22T11:46:57.421Z,83.00
2022-10-22T11:55:45.455Z,82.82
2022-10-22T12:04:21.926Z,82.59
2022-10-22T12:12:45.067Z,82.89
2022-10-22T12:21:14.029Z,83.29
2022-10-22T12:29:36.773Z,83.94
2022-10-22T12:38:08.405Z,84.04
2022-10-22T12:46:33.880Z,84.64
2022-10-22T12:54:56.869Z,84.63
2022-10-22T13:03:32.954Z,84.43
2022-10-22T13:12:04.667Z,84.36
2022-10-22T13:20:27.593Z,84.14
2022-10-22T13:28:56.484Z,83.82
2022-10-22T13:37:19.555Z,83.52
2022-10-22T13:45:44.546Z,83.27
2022-10-22T13:54:15.261Z,83.59
2022-10-22T14:02:38.150Z,84.01
2022-10-22T14:11:01.011Z,84.84
2022-10-22T14:19:23.816Z,84.92
2022-10-22T14:27:47.480Z,85.20
2022-10-22T14:36:14.421Z,85.13
2022-10-22T14:44:37.399Z,85.33
2022-10-22T14:53:00.223Z,85.88
2022-10-22T15:01:23.026Z,86.73
2022-10-22T15:09:45.905Z,86.70
2022-10-22T15:18:08.691Z,86.19
2022-10-22T15:26:31.594Z,86.20
2022-10-22T15:34:55.123Z,86.49
2022-10-22T15:43:17.957Z,86.61
2022-10-22T15:51:40.817Z,87.46
2022-10-22T16:00:05.673Z,87.95
2022-10-22T16:08:35.702Z,87.84
2022-10-22T16:16:59.681Z,88.32
2022-10-22T16:25:26.302Z,88.58
2022-10-22T16:33:51.106Z,88.55
2022-10-22T16:42:13.966Z,89.02
2022-10-22T16:50:39.664Z,88.99
2022-10-22T16:59:02.549Z,89.37
2022-10-22T17:07:25.344Z,89.34
2022-10-22T17:15:48.123Z,89.79
2022-10-22T17:24:11.414Z,90.83
2022-10-22T17:32:39.795Z,91.79
2022-10-22T17:41:04.178Z,91.26
2022-10-22T17:49:28.826Z,91.64
2022-10-22T17:57:51.651Z,91.66
2022-10-22T18:06:14.955Z,91.65
2022-10-22T18:14:37.921Z,92.40
2022-10-22T18:23:00.657Z,92.52
2022-10-22T18:31:24.910Z,92.38
2022-10-22T18:39:47.735Z,93.06
2022-10-22T18:48:11.035Z,93.35
2022-10-22T18:56:34.025Z,93.52
2022-10-22T19:04:57.002Z,94.28
2022-10-22T19:13:21.200Z,94.87
2022-10-22T19:21:44.605Z,94.96
2022-10-22T19:30:07.844Z,94.58
2022-10-22T19:38:30.826Z,94.59
2022-10-22T19:46:53.908Z,95.34
2022-10-22T19:55:17.204Z,96.14
2022-10-22T20:03:40.482Z,97.51
2022-10-22T20:12:03.424Z,99.39
2022-10-22T20:20:26.706Z,99.84
2022-10-22T20:28:50.318Z,99.87
2022-10-22T20:37:13.294Z,99.83
2022-10-22T20:45:36.674Z,100.00
2022-10-22T20:53:59.481Z,100.00
2022-10-22T21:02:22.689Z,100.00
2022-10-22T21:10:46.517Z,100.00
2022-10-22T21:19:09.289Z,100.00
2022-10-22T21:27:32.117Z,100.00
2022-10-22T21:35:56.406Z,100.00
2022-10-22T21:44:19.226Z,100.00
2022-10-22T21:52:42.012Z,100.00
2022-10-22T22:01:04.889Z,100.00
2022-10-22T22:09:28.867Z,100.00
2022-10-22T22:17:51.721Z,100.00
2022-10-22T22:26:16.916Z,100.00
2022-10-22T22:34:40.809Z,100.00
2022-10-22T22:43:03.626Z,100.00
2022-10-22T22:51:26.477Z,100.00
2022-10-22T22:59:52.429Z,100.00
2022-10-22T23:08:15.258Z,100.00
2022-10-22T23:16:41.236Z,100.00
2022-10-22T23:25:04.313Z,100.00
2022-10-22T23:33:27.071Z,100.00
2022-10-22T23:41:50.440Z,100.00
2022-10-22T23:50:13.230Z,100.00
2022-10-22T23:58:36.567Z,100.00
